Time;durP1;ratioP1;P1;durP2;ratioP2;P2;SDS_P1;SDS_P2;PMS_P1;PMS_P2;Temp;Humidity;BMP_temperature;BMP_pressure;BME280_temperature;BME280_humidity;BME280_pressure;Samples;Min_cycle;Max_cycle;Signal;HPM_P1;HPM_P2
2023/08/15 00:18:52;;;;;;;25.40;22.80;;;20.20;99.90;;;;;;4586461;30;20656;-84
2023/08/15 00:34:43;;;;;;;26.53;23.83;;;19.90;99.90;;;;;;4648605;29;20245;-85
2023/08/15 00:59:51;;;;;;;26.03;23.53;;;19.70;99.90;;;;;;4713086;29;20207;-85
2023/08/15 01:25:16;;;;;;;26.20;23.80;;;19.50;99.90;;;;;;4689966;29;20212;-82
2023/08/15 01:45:34;;;;;;;26.63;24.03;;;19.20;99.90;;;;;;4587984;30;20289;-85
2023/08/15 02:45:58;;;;;;;28.57;25.67;;;19.10;99.90;;;;;;4613107;30;20601;-86
2023/08/15 03:06:24;;;;;;;27.70;25.00;;;19.40;99.90;;;;;;4601136;30;22141;-85
2023/08/15 03:32:06;;;;;;;28.10;25.37;;;19.40;99.90;;;;;;4665295;29;20238;-85
2023/08/15 03:57:10;;;;;;;24.63;22.30;;;19.80;99.90;;;;;;4605936;29;20597;-83
2023/08/15 04:17:38;;;;;;;23.07;21.03;;;20.00;99.90;;;;;;4634648;29;20214;-85
2023/08/15 05:58:49;;;;;;;15.40;13.93;;;24.30;99.90;;;;;;4640881;29;20574;-86
2023/08/15 06:24:25;;;;;;;14.70;13.35;;;25.30;99.90;;;;;;4745777;29;20212;-85
2023/08/15 06:59:40;;;;;;;14.68;13.35;;;26.00;98.30;;;;;;4642806;30;20321;-87
2023/08/15 07:20:26;;;;;;;14.25;12.70;;;27.00;93.00;;;;;;4694577;29;20291;-83
2023/08/15 07:45:39;;;;;;;13.88;10.57;;;27.90;87.70;;;;;;4770446;29;20192;-83
2023/08/15 08:16:01;;;;;;;7.70;7.10;;;29.20;68.60;;;;;;4807514;29;20210;-86
2023/08/15 08:56:32;;;;;;;6.05;5.60;;;30.30;65.80;;;;;;4795941;29;20215;-82
2023/08/15 09:26:56;;;;;;;5.65;5.25;;;30.80;61.30;;;;;;4687778;29;20311;-83
2023/08/15 09:52:11;;;;;;;5.68;5.18;;;31.20;59.30;;;;;;4764255;29;20260;-86
2023/08/15 10:22:21;;;;;;;5.57;5.07;;;31.00;60.20;;;;;;4658908;29;20385;-85
2023/08/15 10:43:10;;;;;;;4.70;4.07;;;31.00;57.50;;;;;;4609593;30;20205;-84
2023/08/15 11:03:36;;;;;;;4.22;3.10;;;31.40;50.10;;;;;;4689128;29;20292;-82
2023/08/15 11:28:51;;;;;;;4.82;4.32;;;31.80;52.70;;;;;;4633967;30;20342;-85
2023/08/15 12:14:04;;;;;;;3.78;3.50;;;32.60;48.20;;;;;;4531161;30;20846;-84
2023/08/15 12:34:46;;;;;;;4.85;3.58;;;33.00;48.80;;;;;;4671305;29;20349;-84
2023/08/15 12:55:13;;;;;;;4.82;3.28;;;33.30;48.40;;;;;;4696212;29;20212;-84
2023/08/15 13:19:58;;;;;;;2.80;2.70;;;34.20;46.70;;;;;;4549018;30;20665;-80
2023/08/15 13:45:49;;;;;;;3.10;2.90;;;34.40;44.50;;;;;;4638864;30;20990;-84
2023/08/15 14:16:15;;;;;;;3.80;3.50;;;35.20;45.50;;;;;;4752127;29;20298;-85
2023/08/15 14:41:00;;;;;;;3.45;3.15;;;38.30;46.50;;;;;;4622407;29;20558;-85
2023/08/15 15:07:04;;;;;;;3.67;3.03;;;38.70;45.30;;;;;;6126957;22;1339850;-87
2023/08/15 15:11:24;;;;;;;2.90;2.70;;;39.60;44.20;;;;;;5920282;23;20490;-84
2023/08/15 15:32:07;;;;;;;3.45;3.10;;;41.30;44.60;;;;;;5731339;24;20230;-82
2023/08/15 16:22:57;;;;;;;4.00;3.10;;;32.90;44.50;;;;;;5697921;24;20271;-82
2023/08/15 16:58:38;;;;;;;5.88;3.38;;;31.00;45.30;;;;;;5860691;24;20173;-84
2023/08/15 17:02:58;;;;;;;3.47;3.28;;;30.80;45.20;;;;;;5816924;24;21184;-84
2023/08/15 17:18:33;;;;;;;4.03;3.20;;;29.70;47.30;;;;;;5886764;23;20501;-87
2023/08/15 17:38:47;;;;;;;3.78;3.47;;;28.30;48.80;;;;;;5776774;24;20518;-82
2023/08/15 18:04:33;;;;;;;4.80;4.40;;;26.40;50.10;;;;;;5791595;24;20177;-85
2023/08/15 18:34:17;;;;;;;13.93;10.90;;;24.50;52.80;;;;;;5697193;24;20703;-85
2023/08/15 18:50:03;;;;;;;15.73;12.10;;;23.90;57.80;;;;;;5584840;25;20793;-87
2023/08/15 19:10:45;;;;;;;9.43;7.72;;;23.30;75.20;;;;;;5804035;24;20665;-85
2023/08/15 19:14:56;;;;;;;10.32;8.30;;;23.20;78.50;;;;;;5713020;24;20565;-83
2023/08/15 20:30:58;;;;;;;6.78;5.65;;;21.70;91.20;;;;;;5486605;25;20638;-87
2023/08/15 20:56:56;;;;;;;10.57;6.30;;;21.30;92.60;;;;;;5819108;24;20218;-84
2023/08/15 21:31:52;;;;;;;10.93;7.33;;;20.40;96.90;;;;;;5765301;24;20724;-86
2023/08/15 21:57:31;;;;;;;8.77;7.87;;;20.30;99.30;;;;;;5950525;23;20301;-86
2023/08/15 22:32:48;;;;;;;9.90;8.20;;;20.00;99.90;;;;;;5704261;24;20213;-85
2023/08/15 23:03:43;;;;;;;9.90;8.03;;;19.30;99.90;;;;;;5897343;23;20157;-84
2023/08/15 23:29:01;;;;;;;11.13;8.60;;;18.90;99.90;;;;;;5836886;23;20526;-86
2023/08/15 23:54:17;;;;;;;9.73;8.83;;;18.60;99.90;;;;;;5841895;23;20183;-84
